sensor_id;sensor_type;location;lat;lon;timestamp;P1;durP1;ratioP1;P2;durP2;ratioP2
5995;SDS011;3026;53.612;7.278;2023-06-05T00:02:06;4.90;;;2.97;;
5995;SDS011;3026;53.612;7.278;2023-06-05T00:04:33;2.80;;;2.60;;
5995;SDS011;3026;53.612;7.278;2023-06-05T00:07:01;3.90;;;2.97;;
5995;SDS011;3026;53.612;7.278;2023-06-05T00:09:28;2.60;;;2.40;;
5995;SDS011;3026;53.612;7.278;2023-06-05T00:11:54;5.93;;;3.10;;
5995;SDS011;3026;53.612;7.278;2023-06-05T00:14:21;3.00;;;2.70;;
5995;SDS011;3026;53.612;7.278;2023-06-05T00:16:49;5.07;;;3.10;;
5995;SDS011;3026;53.612;7.278;2023-06-05T00:19:16;3.50;;;2.90;;
5995;SDS011;3026;53.612;7.278;2023-06-05T00:21:43;5.53;;;3.30;;
5995;SDS011;3026;53.612;7.278;2023-06-05T00:24:10;3.37;;;2.73;;
5995;SDS011;3026;53.612;7.278;2023-06-05T00:26:37;3.37;;;2.70;;
5995;SDS011;3026;53.612;7.278;2023-06-05T00:29:03;3.30;;;3.00;;
5995;SDS011;3026;53.612;7.278;2023-06-05T00:31:30;2.93;;;2.63;;
5995;SDS011;3026;53.612;7.278;2023-06-05T00:33:59;4.33;;;2.90;;
5995;SDS011;3026;53.612;7.278;2023-06-05T00:36:25;4.50;;;2.83;;
5995;SDS011;3026;53.612;7.278;2023-06-05T00:38:53;3.27;;;2.60;;
5995;SDS011;3026;53.612;7.278;2023-06-05T00:41:22;2.90;;;2.33;;
5995;SDS011;3026;53.612;7.278;2023-06-05T00:43:49;3.30;;;2.50;;
5995;SDS011;3026;53.612;7.278;2023-06-05T00:46:16;6.03;;;2.23;;
5995;SDS011;3026;53.612;7.278;2023-06-05T00:48:43;3.67;;;2.17;;
5995;SDS011;3026;53.612;7.278;2023-06-05T00:51:13;3.03;;;2.43;;
5995;SDS011;3026;53.612;7.278;2023-06-05T00:53:41;4.50;;;2.87;;
5995;SDS011;3026;53.612;7.278;2023-06-05T00:56:10;3.07;;;2.63;;
5995;SDS011;3026;53.612;7.278;2023-06-05T00:58:37;3.70;;;2.67;;
5995;SDS011;3026;53.612;7.278;2023-06-05T01:01:05;3.00;;;2.33;;
5995;SDS011;3026;53.612;7.278;2023-06-05T01:03:33;3.40;;;2.70;;
5995;SDS011;3026;53.612;7.278;2023-06-05T01:06:00;2.90;;;2.10;;
5995;SDS011;3026;53.612;7.278;2023-06-05T01:08:30;3.73;;;2.40;;
5995;SDS011;3026;53.612;7.278;2023-06-05T01:11:04;2.37;;;2.17;;
5995;SDS011;3026;53.612;7.278;2023-06-05T01:13:36;2.87;;;2.40;;
5995;SDS011;3026;53.612;7.278;2023-06-05T01:16:12;2.60;;;2.37;;
5995;SDS011;3026;53.612;7.278;2023-06-05T01:18:40;2.97;;;2.10;;
5995;SDS011;3026;53.612;7.278;2023-06-05T01:21:11;3.30;;;1.87;;
5995;SDS011;3026;53.612;7.278;2023-06-05T01:23:43;2.83;;;2.00;;
5995;SDS011;3026;53.612;7.278;2023-06-05T01:26:12;2.33;;;1.90;;
5995;SDS011;3026;53.612;7.278;2023-06-05T01:28:47;2.70;;;1.93;;
5995;SDS011;3026;53.612;7.278;2023-06-05T01:31:16;2.60;;;2.07;;
5995;SDS011;3026;53.612;7.278;2023-06-05T01:33:46;3.37;;;2.17;;
5995;SDS011;3026;53.612;7.278;2023-06-05T01:36:17;3.03;;;2.23;;
5995;SDS011;3026;53.612;7.278;2023-06-05T01:38:46;2.33;;;2.13;;
5995;SDS011;3026;53.612;7.278;2023-06-05T01:41:14;2.50;;;2.30;;
5995;SDS011;3026;53.612;7.278;2023-06-05T01:43:42;2.30;;;2.10;;
5995;SDS011;3026;53.612;7.278;2023-06-05T01:46:11;3.80;;;2.33;;
5995;SDS011;3026;53.612;7.278;2023-06-05T01:48:40;3.20;;;2.70;;
5995;SDS011;3026;53.612;7.278;2023-06-05T01:51:08;3.23;;;2.60;;
5995;SDS011;3026;53.612;7.278;2023-06-05T01:53:35;4.80;;;3.00;;
5995;SDS011;3026;53.612;7.278;2023-06-05T01:56:03;2.90;;;2.67;;
5995;SDS011;3026;53.612;7.278;2023-06-05T01:58:32;3.10;;;2.60;;
5995;SDS011;3026;53.612;7.278;2023-06-05T02:00:58;3.17;;;2.37;;
5995;SDS011;3026;53.612;7.278;2023-06-05T02:03:25;3.13;;;2.70;;
5995;SDS011;3026;53.612;7.278;2023-06-05T02:05:53;7.07;;;2.93;;
5995;SDS011;3026;53.612;7.278;2023-06-05T02:08:20;3.50;;;3.03;;
5995;SDS011;3026;53.612;7.278;2023-06-05T02:10:47;3.43;;;3.07;;
5995;SDS011;3026;53.612;7.278;2023-06-05T02:13:16;3.20;;;2.50;;
5995;SDS011;3026;53.612;7.278;2023-06-05T02:15:44;3.60;;;2.80;;
5995;SDS011;3026;53.612;7.278;2023-06-05T02:18:11;2.77;;;2.57;;
5995;SDS011;3026;53.612;7.278;2023-06-05T02:20:40;3.30;;;3.00;;
5995;SDS011;3026;53.612;7.278;2023-06-05T02:23:07;5.10;;;3.43;;
5995;SDS011;3026;53.612;7.278;2023-06-05T02:25:35;3.77;;;3.10;;
5995;SDS011;3026;53.612;7.278;2023-06-05T02:28:01;4.60;;;2.90;;
5995;SDS011;3026;53.612;7.278;2023-06-05T02:30:30;4.07;;;3.40;;
5995;SDS011;3026;53.612;7.278;2023-06-05T02:32:58;4.93;;;3.17;;
5995;SDS011;3026;53.612;7.278;2023-06-05T02:35:25;3.23;;;2.83;;
5995;SDS011;3026;53.612;7.278;2023-06-05T02:37:53;3.13;;;2.83;;
5995;SDS011;3026;53.612;7.278;2023-06-05T02:40:21;3.63;;;3.17;;
5995;SDS011;3026;53.612;7.278;2023-06-05T02:42:48;3.30;;;2.93;;
5995;SDS011;3026;53.612;7.278;2023-06-05T02:45:15;4.50;;;3.10;;
5995;SDS011;3026;53.612;7.278;2023-06-05T02:47:43;3.97;;;3.33;;
5995;SDS011;3026;53.612;7.278;2023-06-05T02:50:10;4.03;;;2.97;;
5995;SDS011;3026;53.612;7.278;2023-06-05T02:52:37;3.30;;;3.00;;
5995;SDS011;3026;53.612;7.278;2023-06-05T02:55:05;3.10;;;2.80;;
5995;SDS011;3026;53.612;7.278;2023-06-05T02:57:32;3.57;;;2.80;;
5995;SDS011;3026;53.612;7.278;2023-06-05T03:00:07;4.10;;;3.40;;
5995;SDS011;3026;53.612;7.278;2023-06-05T03:02:34;4.20;;;3.00;;
5995;SDS011;3026;53.612;7.278;2023-06-05T03:05:04;4.20;;;3.80;;
5995;SDS011;3026;53.612;7.278;2023-06-05T03:07:32;3.83;;;3.20;;
5995;SDS011;3026;53.612;7.278;2023-06-05T03:09:59;4.50;;;2.90;;
5995;SDS011;3026;53.612;7.278;2023-06-05T03:12:26;3.43;;;2.93;;
5995;SDS011;3026;53.612;7.278;2023-06-05T03:14:53;3.70;;;2.80;;
5995;SDS011;3026;53.612;7.278;2023-06-05T03:17:20;2.87;;;2.57;;
5995;SDS011;3026;53.612;7.278;2023-06-05T03:19:48;4.17;;;2.50;;
5995;SDS011;3026;53.612;7.278;2023-06-05T03:22:17;3.13;;;2.83;;
5995;SDS011;3026;53.612;7.278;2023-06-05T03:24:44;2.90;;;2.60;;
5995;SDS011;3026;53.612;7.278;2023-06-05T03:27:11;3.53;;;2.60;;
5995;SDS011;3026;53.612;7.278;2023-06-05T03:29:38;3.03;;;2.43;;
5995;SDS011;3026;53.612;7.278;2023-06-05T03:32:05;2.70;;;2.50;;
5995;SDS011;3026;53.612;7.278;2023-06-05T03:34:32;2.80;;;2.60;;
5995;SDS011;3026;53.612;7.278;2023-06-05T03:37:01;3.43;;;2.80;;
5995;SDS011;3026;53.612;7.278;2023-06-05T03:39:29;3.83;;;2.93;;
5995;SDS011;3026;53.612;7.278;2023-06-05T03:41:56;5.17;;;2.60;;
5995;SDS011;3026;53.612;7.278;2023-06-05T03:44:23;3.07;;;2.77;;
5995;SDS011;3026;53.612;7.278;2023-06-05T03:46:50;3.50;;;3.17;;
5995;SDS011;3026;53.612;7.278;2023-06-05T03:49:16;5.77;;;3.20;;
5995;SDS011;3026;53.612;7.278;2023-06-05T03:51:45;4.53;;;2.53;;
5995;SDS011;3026;53.612;7.278;2023-06-05T03:54:12;3.70;;;2.80;;
5995;SDS011;3026;53.612;7.278;2023-06-05T03:56:43;3.67;;;3.27;;
5995;SDS011;3026;53.612;7.278;2023-06-05T03:59:15;6.53;;;2.97;;
5995;SDS011;3026;53.612;7.278;2023-06-05T04:01:45;4.80;;;2.97;;
5995;SDS011;3026;53.612;7.278;2023-06-05T04:04:12;3.20;;;2.70;;
5995;SDS011;3026;53.612;7.278;2023-06-05T04:06:39;2.60;;;2.40;;
5995;SDS011;3026;53.612;7.278;2023-06-05T04:09:06;3.17;;;2.77;;
5995;SDS011;3026;53.612;7.278;2023-06-05T04:11:37;3.27;;;2.60;;
5995;SDS011;3026;53.612;7.278;2023-06-05T04:14:06;3.23;;;2.93;;
5995;SDS011;3026;53.612;7.278;2023-06-05T04:16:33;3.13;;;2.77;;
5995;SDS011;3026;53.612;7.278;2023-06-05T04:19:00;4.17;;;3.17;;
5995;SDS011;3026;53.612;7.278;2023-06-05T04:21:27;3.67;;;2.70;;
5995;SDS011;3026;53.612;7.278;2023-06-05T04:23:54;4.27;;;2.97;;
5995;SDS011;3026;53.612;7.278;2023-06-05T04:26:21;5.07;;;2.97;;
5995;SDS011;3026;53.612;7.278;2023-06-05T04:28:49;4.73;;;3.00;;
5995;SDS011;3026;53.612;7.278;2023-06-05T04:31:18;4.17;;;3.53;;
5995;SDS011;3026;53.612;7.278;2023-06-05T04:33:44;3.20;;;2.73;;
5995;SDS011;3026;53.612;7.278;2023-06-05T04:36:11;4.07;;;3.20;;
5995;SDS011;3026;53.612;7.278;2023-06-05T04:38:38;5.53;;;3.43;;
5995;SDS011;3026;53.612;7.278;2023-06-05T04:41:05;3.80;;;3.13;;
5995;SDS011;3026;53.612;7.278;2023-06-05T04:43:32;3.53;;;2.80;;
5995;SDS011;3026;53.612;7.278;2023-06-05T04:45:59;4.13;;;3.47;;
5995;SDS011;3026;53.612;7.278;2023-06-05T04:48:28;4.53;;;3.43;;
5995;SDS011;3026;53.612;7.278;2023-06-05T04:50:55;3.87;;;3.40;;
5995;SDS011;3026;53.612;7.278;2023-06-05T04:53:23;3.30;;;3.00;;
5995;SDS011;3026;53.612;7.278;2023-06-05T04:55:53;3.50;;;3.20;;
5995;SDS011;3026;53.612;7.278;2023-06-05T04:58:20;7.23;;;3.40;;
5995;SDS011;3026;53.612;7.278;2023-06-05T05:00:47;3.70;;;2.80;;
5995;SDS011;3026;53.612;7.278;2023-06-05T05:03:14;3.90;;;3.33;;
5995;SDS011;3026;53.612;7.278;2023-06-05T05:05:44;3.83;;;2.90;;
5995;SDS011;3026;53.612;7.278;2023-06-05T05:08:10;5.70;;;3.20;;
5995;SDS011;3026;53.612;7.278;2023-06-05T05:10:37;3.10;;;2.63;;
5995;SDS011;3026;53.612;7.278;2023-06-05T05:13:04;4.10;;;2.30;;
5995;SDS011;3026;53.612;7.278;2023-06-05T05:15:31;5.27;;;2.60;;
5995;SDS011;3026;53.612;7.278;2023-06-05T05:17:58;3.77;;;2.70;;
5995;SDS011;3026;53.612;7.278;2023-06-05T05:20:28;2.37;;;2.13;;
5995;SDS011;3026;53.612;7.278;2023-06-05T05:22:56;2.17;;;1.97;;
5995;SDS011;3026;53.612;7.278;2023-06-05T05:25:24;3.17;;;2.30;;
5995;SDS011;3026;53.612;7.278;2023-06-05T05:27:51;3.13;;;2.93;;
5995;SDS011;3026;53.612;7.278;2023-06-05T05:30:18;5.50;;;3.23;;
5995;SDS011;3026;53.612;7.278;2023-06-05T05:32:45;3.40;;;2.57;;
5995;SDS011;3026;53.612;7.278;2023-06-05T05:35:12;2.27;;;2.07;;
5995;SDS011;3026;53.612;7.278;2023-06-05T05:37:38;2.90;;;2.50;;
5995;SDS011;3026;53.612;7.278;2023-06-05T05:40:07;3.10;;;2.27;;
5995;SDS011;3026;53.612;7.278;2023-06-05T05:42:36;4.60;;;2.73;;
5995;SDS011;3026;53.612;7.278;2023-06-05T05:45:02;3.77;;;2.57;;
5995;SDS011;3026;53.612;7.278;2023-06-05T05:47:30;3.27;;;2.60;;
5995;SDS011;3026;53.612;7.278;2023-06-05T05:49:56;2.70;;;2.20;;
5995;SDS011;3026;53.612;7.278;2023-06-05T05:52:23;2.60;;;1.73;;
5995;SDS011;3026;53.612;7.278;2023-06-05T05:54:50;4.83;;;2.20;;
5995;SDS011;3026;53.612;7.278;2023-06-05T05:57:18;3.00;;;2.00;;
5995;SDS011;3026;53.612;7.278;2023-06-05T05:59:45;3.60;;;2.03;;
5995;SDS011;3026;53.612;7.278;2023-06-05T06:02:12;2.30;;;2.10;;
5995;SDS011;3026;53.612;7.278;2023-06-05T06:04:39;2.00;;;1.80;;
5995;SDS011;3026;53.612;7.278;2023-06-05T06:07:09;2.70;;;2.40;;
5995;SDS011;3026;53.612;7.278;2023-06-05T06:09:36;2.20;;;2.00;;
5995;SDS011;3026;53.612;7.278;2023-06-05T06:12:03;2.73;;;1.93;;
5995;SDS011;3026;53.612;7.278;2023-06-05T06:14:34;3.00;;;1.93;;
5995;SDS011;3026;53.612;7.278;2023-06-05T06:17:01;1.73;;;1.63;;
5995;SDS011;3026;53.612;7.278;2023-06-05T06:19:31;1.83;;;1.67;;
5995;SDS011;3026;53.612;7.278;2023-06-05T06:21:58;3.30;;;1.90;;
5995;SDS011;3026;53.612;7.278;2023-06-05T06:24:25;2.60;;;2.17;;
5995;SDS011;3026;53.612;7.278;2023-06-05T06:26:52;4.13;;;2.23;;
5995;SDS011;3026;53.612;7.278;2023-06-05T06:29:20;2.57;;;1.67;;
5995;SDS011;3026;53.612;7.278;2023-06-05T06:31:50;4.53;;;2.00;;
5995;SDS011;3026;53.612;7.278;2023-06-05T06:34:17;1.90;;;1.70;;
5995;SDS011;3026;53.612;7.278;2023-06-05T06:36:44;3.00;;;1.70;;
5995;SDS011;3026;53.612;7.278;2023-06-05T06:39:11;1.53;;;1.43;;
5995;SDS011;3026;53.612;7.278;2023-06-05T06:41:38;2.40;;;1.80;;
5995;SDS011;3026;53.612;7.278;2023-06-05T06:44:05;2.80;;;1.90;;
5995;SDS011;3026;53.612;7.278;2023-06-05T06:46:32;2.53;;;1.83;;
5995;SDS011;3026;53.612;7.278;2023-06-05T06:49:00;1.80;;;1.70;;
5995;SDS011;3026;53.612;7.278;2023-06-05T06:51:27;3.47;;;1.90;;
5995;SDS011;3026;53.612;7.278;2023-06-05T06:53:54;2.47;;;1.93;;
5995;SDS011;3026;53.612;7.278;2023-06-05T06:56:21;2.70;;;1.80;;
5995;SDS011;3026;53.612;7.278;2023-06-05T06:58:48;1.93;;;1.80;;
5995;SDS011;3026;53.612;7.278;2023-06-05T07:01:15;2.40;;;1.80;;
5995;SDS011;3026;53.612;7.278;2023-06-05T07:03:41;3.60;;;1.90;;
5995;SDS011;3026;53.612;7.278;2023-06-05T07:06:10;2.20;;;1.90;;
5995;SDS011;3026;53.612;7.278;2023-06-05T07:08:37;2.20;;;1.90;;
5995;SDS011;3026;53.612;7.278;2023-06-05T07:11:04;2.10;;;1.93;;
5995;SDS011;3026;53.612;7.278;2023-06-05T07:13:31;2.83;;;2.00;;
5995;SDS011;3026;53.612;7.278;2023-06-05T07:15:58;2.20;;;1.83;;
5995;SDS011;3026;53.612;7.278;2023-06-05T07:18:24;1.90;;;1.80;;
5995;SDS011;3026;53.612;7.278;2023-06-05T07:20:52;2.17;;;1.87;;
5995;SDS011;3026;53.612;7.278;2023-06-05T07:23:20;2.10;;;1.80;;
5995;SDS011;3026;53.612;7.278;2023-06-05T07:25:47;2.77;;;1.97;;
5995;SDS011;3026;53.612;7.278;2023-06-05T07:28:14;2.83;;;2.00;;
5995;SDS011;3026;53.612;7.278;2023-06-05T07:30:41;2.27;;;2.07;;
5995;SDS011;3026;53.612;7.278;2023-06-05T07:33:09;2.10;;;1.90;;
5995;SDS011;3026;53.612;7.278;2023-06-05T07:35:36;2.20;;;1.90;;
5995;SDS011;3026;53.612;7.278;2023-06-05T07:38:03;2.00;;;1.87;;
5995;SDS011;3026;53.612;7.278;2023-06-05T07:40:31;2.27;;;1.70;;
5995;SDS011;3026;53.612;7.278;2023-06-05T07:42:58;2.20;;;1.97;;
5995;SDS011;3026;53.612;7.278;2023-06-05T07:45:25;2.30;;;1.63;;
5995;SDS011;3026;53.612;7.278;2023-06-05T07:47:52;2.17;;;1.87;;
5995;SDS011;3026;53.612;7.278;2023-06-05T07:50:19;1.97;;;1.80;;
5995;SDS011;3026;53.612;7.278;2023-06-05T07:52:46;2.40;;;2.20;;
5995;SDS011;3026;53.612;7.278;2023-06-05T07:55:13;4.23;;;2.00;;
5995;SDS011;3026;53.612;7.278;2023-06-05T07:57:41;2.30;;;2.10;;
5995;SDS011;3026;53.612;7.278;2023-06-05T08:00:09;2.80;;;1.93;;
5995;SDS011;3026;53.612;7.278;2023-06-05T08:02:36;2.03;;;1.77;;
5995;SDS011;3026;53.612;7.278;2023-06-05T08:05:04;1.67;;;1.50;;
5995;SDS011;3026;53.612;7.278;2023-06-05T08:07:32;3.60;;;2.07;;
5995;SDS011;3026;53.612;7.278;2023-06-05T08:09:59;2.07;;;1.70;;
5995;SDS011;3026;53.612;7.278;2023-06-05T08:12:26;2.60;;;2.03;;
5995;SDS011;3026;53.612;7.278;2023-06-05T08:14:54;2.20;;;2.00;;
5995;SDS011;3026;53.612;7.278;2023-06-05T08:17:21;2.30;;;1.90;;
5995;SDS011;3026;53.612;7.278;2023-06-05T08:19:48;3.00;;;1.87;;
5995;SDS011;3026;53.612;7.278;2023-06-05T08:22:15;3.37;;;2.27;;
5995;SDS011;3026;53.612;7.278;2023-06-05T08:24:42;1.93;;;1.83;;
5995;SDS011;3026;53.612;7.278;2023-06-05T08:27:09;4.07;;;2.20;;
5995;SDS011;3026;53.612;7.278;2023-06-05T08:29:35;4.03;;;2.00;;
5995;SDS011;3026;53.612;7.278;2023-06-05T08:32:04;2.10;;;1.83;;
5995;SDS011;3026;53.612;7.278;2023-06-05T08:34:31;2.67;;;1.70;;
5995;SDS011;3026;53.612;7.278;2023-06-05T08:36:58;3.13;;;1.90;;
5995;SDS011;3026;53.612;7.278;2023-06-05T08:39:25;2.63;;;2.00;;
5995;SDS011;3026;53.612;7.278;2023-06-05T08:41:57;2.93;;;1.63;;
5995;SDS011;3026;53.612;7.278;2023-06-05T08:44:26;2.47;;;1.80;;
5995;SDS011;3026;53.612;7.278;2023-06-05T08:46:54;2.77;;;1.77;;
5995;SDS011;3026;53.612;7.278;2023-06-05T08:49:28;3.17;;;1.97;;
5995;SDS011;3026;53.612;7.278;2023-06-05T08:51:57;3.37;;;1.73;;
5995;SDS011;3026;53.612;7.278;2023-06-05T08:54:29;1.97;;;1.70;;
5995;SDS011;3026;53.612;7.278;2023-06-05T08:57:00;1.33;;;1.23;;
5995;SDS011;3026;53.612;7.278;2023-06-05T08:59:28;2.57;;;2.27;;
5995;SDS011;3026;53.612;7.278;2023-06-05T09:01:55;2.03;;;1.93;;
5995;SDS011;3026;53.612;7.278;2023-06-05T09:04:22;2.80;;;1.87;;
5995;SDS011;3026;53.612;7.278;2023-06-05T09:06:52;2.10;;;2.00;;
5995;SDS011;3026;53.612;7.278;2023-06-05T09:09:19;5.27;;;1.73;;
5995;SDS011;3026;53.612;7.278;2023-06-05T09:11:46;2.10;;;1.90;;
5995;SDS011;3026;53.612;7.278;2023-06-05T09:14:13;3.33;;;2.30;;
5995;SDS011;3026;53.612;7.278;2023-06-05T09:16:40;2.40;;;2.20;;
5995;SDS011;3026;53.612;7.278;2023-06-05T09:19:08;2.43;;;2.23;;
5995;SDS011;3026;53.612;7.278;2023-06-05T09:21:36;2.47;;;1.90;;
5995;SDS011;3026;53.612;7.278;2023-06-05T09:24:11;2.30;;;2.10;;
5995;SDS011;3026;53.612;7.278;2023-06-05T09:26:46;3.43;;;1.90;;
5995;SDS011;3026;53.612;7.278;2023-06-05T09:29:19;1.97;;;1.80;;
5995;SDS011;3026;53.612;7.278;2023-06-05T09:31:47;2.43;;;2.17;;
5995;SDS011;3026;53.612;7.278;2023-06-05T09:34:20;3.37;;;2.40;;
5995;SDS011;3026;53.612;7.278;2023-06-05T09:36:47;3.00;;;1.90;;
5995;SDS011;3026;53.612;7.278;2023-06-05T09:39:16;4.27;;;3.27;;
5995;SDS011;3026;53.612;7.278;2023-06-05T09:41:45;3.10;;;2.80;;
5995;SDS011;3026;53.612;7.278;2023-06-05T09:44:14;3.30;;;3.00;;
5995;SDS011;3026;53.612;7.278;2023-06-05T09:49:25;6.17;;;2.97;;
5995;SDS011;3026;53.612;7.278;2023-06-05T09:51:53;2.80;;;2.50;;
5995;SDS011;3026;53.612;7.278;2023-06-05T09:54:23;3.30;;;2.80;;
5995;SDS011;3026;53.612;7.278;2023-06-05T09:56:58;4.73;;;3.03;;
5995;SDS011;3026;53.612;7.278;2023-06-05T09:59:27;4.43;;;3.10;;
5995;SDS011;3026;53.612;7.278;2023-06-05T10:01:57;3.77;;;2.67;;
5995;SDS011;3026;53.612;7.278;2023-06-05T10:04:26;3.40;;;2.47;;
5995;SDS011;3026;53.612;7.278;2023-06-05T10:06:54;3.07;;;2.40;;
5995;SDS011;3026;53.612;7.278;2023-06-05T10:09:27;4.67;;;3.13;;
5995;SDS011;3026;53.612;7.278;2023-06-05T10:11:56;3.10;;;2.80;;
5995;SDS011;3026;53.612;7.278;2023-06-05T10:14:24;4.00;;;3.33;;
5995;SDS011;3026;53.612;7.278;2023-06-05T10:16:51;4.50;;;2.93;;
5995;SDS011;3026;53.612;7.278;2023-06-05T10:19:19;4.67;;;2.83;;
5995;SDS011;3026;53.612;7.278;2023-06-05T10:21:47;3.30;;;2.63;;
5995;SDS011;3026;53.612;7.278;2023-06-05T10:24:15;3.97;;;2.80;;
5995;SDS011;3026;53.612;7.278;2023-06-05T10:27:12;4.03;;;3.20;;
5995;SDS011;3026;53.612;7.278;2023-06-05T10:30:25;3.67;;;2.30;;
5995;SDS011;3026;53.612;7.278;2023-06-05T10:33:09;3.97;;;3.27;;
5995;SDS011;3026;53.612;7.278;2023-06-05T10:35:47;3.00;;;2.70;;
5995;SDS011;3026;53.612;7.278;2023-06-05T10:38:18;2.80;;;2.50;;
5995;SDS011;3026;53.612;7.278;2023-06-05T10:40:48;3.50;;;3.17;;
5995;SDS011;3026;53.612;7.278;2023-06-05T10:43:27;3.43;;;3.10;;
5995;SDS011;3026;53.612;7.278;2023-06-05T10:45:56;3.53;;;3.20;;
5995;SDS011;3026;53.612;7.278;2023-06-05T10:51:31;3.43;;;3.10;;
5995;SDS011;3026;53.612;7.278;2023-06-05T10:53:59;3.73;;;3.20;;
5995;SDS011;3026;53.612;7.278;2023-06-05T10:59:23;3.90;;;3.30;;
5995;SDS011;3026;53.612;7.278;2023-06-05T11:07:45;6.63;;;3.57;;
5995;SDS011;3026;53.612;7.278;2023-06-05T11:10:15;5.07;;;4.10;;
5995;SDS011;3026;53.612;7.278;2023-06-05T11:12:58;3.73;;;3.37;;
5995;SDS011;3026;53.612;7.278;2023-06-05T11:15:37;7.00;;;4.60;;
5995;SDS011;3026;53.612;7.278;2023-06-05T11:20:58;6.23;;;4.60;;
5995;SDS011;3026;53.612;7.278;2023-06-05T11:23:26;5.80;;;3.77;;
5995;SDS011;3026;53.612;7.278;2023-06-05T11:25:54;4.97;;;4.47;;
5995;SDS011;3026;53.612;7.278;2023-06-05T11:28:36;4.97;;;3.67;;
5995;SDS011;3026;53.612;7.278;2023-06-05T11:31:05;5.03;;;4.33;;
5995;SDS011;3026;53.612;7.278;2023-06-05T11:33:32;5.80;;;4.70;;
5995;SDS011;3026;53.612;7.278;2023-06-05T11:36:00;4.93;;;3.73;;
5995;SDS011;3026;53.612;7.278;2023-06-05T11:38:28;4.10;;;3.70;;
5995;SDS011;3026;53.612;7.278;2023-06-05T11:40:55;4.17;;;3.73;;
5995;SDS011;3026;53.612;7.278;2023-06-05T11:43:22;4.70;;;4.20;;
5995;SDS011;3026;53.612;7.278;2023-06-05T11:45:50;5.33;;;4.00;;
5995;SDS011;3026;53.612;7.278;2023-06-05T11:48:19;5.30;;;4.57;;
5995;SDS011;3026;53.612;7.278;2023-06-05T11:50:52;5.77;;;4.47;;
5995;SDS011;3026;53.612;7.278;2023-06-05T11:53:24;5.00;;;4.50;;
5995;SDS011;3026;53.612;7.278;2023-06-05T11:55:52;5.97;;;4.27;;
5995;SDS011;3026;53.612;7.278;2023-06-05T11:58:32;5.03;;;4.10;;
5995;SDS011;3026;53.612;7.278;2023-06-05T12:01:03;4.87;;;4.27;;
5995;SDS011;3026;53.612;7.278;2023-06-05T12:03:33;6.47;;;4.43;;
5995;SDS011;3026;53.612;7.278;2023-06-05T12:06:01;4.87;;;3.93;;
5995;SDS011;3026;53.612;7.278;2023-06-05T12:08:28;4.30;;;3.67;;
5995;SDS011;3026;53.612;7.278;2023-06-05T12:10:58;5.67;;;3.93;;
5995;SDS011;3026;53.612;7.278;2023-06-05T12:16:13;5.13;;;4.53;;
5995;SDS011;3026;53.612;7.278;2023-06-05T12:18:42;6.60;;;5.47;;
5995;SDS011;3026;53.612;7.278;2023-06-05T12:21:19;5.13;;;4.63;;
5995;SDS011;3026;53.612;7.278;2023-06-05T12:23:47;5.60;;;5.00;;
5995;SDS011;3026;53.612;7.278;2023-06-05T12:26:15;5.60;;;5.00;;
5995;SDS011;3026;53.612;7.278;2023-06-05T12:28:42;5.80;;;4.73;;
5995;SDS011;3026;53.612;7.278;2023-06-05T12:34:01;7.20;;;5.40;;
5995;SDS011;3026;53.612;7.278;2023-06-05T12:36:29;5.73;;;5.03;;
5995;SDS011;3026;53.612;7.278;2023-06-05T12:39:01;4.80;;;4.30;;
5995;SDS011;3026;53.612;7.278;2023-06-05T12:41:30;6.23;;;4.33;;
5995;SDS011;3026;53.612;7.278;2023-06-05T12:44:01;5.00;;;4.50;;
5995;SDS011;3026;53.612;7.278;2023-06-05T12:46:29;6.10;;;4.30;;
5995;SDS011;3026;53.612;7.278;2023-06-05T12:48:57;5.10;;;4.60;;
5995;SDS011;3026;53.612;7.278;2023-06-05T12:51:26;5.03;;;4.07;;
5995;SDS011;3026;53.612;7.278;2023-06-05T12:53:53;5.67;;;4.33;;
5995;SDS011;3026;53.612;7.278;2023-06-05T12:56:20;7.73;;;4.73;;
5995;SDS011;3026;53.612;7.278;2023-06-05T12:58:50;6.37;;;4.30;;
5995;SDS011;3026;53.612;7.278;2023-06-05T13:01:17;8.63;;;4.77;;
5995;SDS011;3026;53.612;7.278;2023-06-05T13:03:44;5.60;;;5.10;;
5995;SDS011;3026;53.612;7.278;2023-06-05T13:06:12;6.40;;;5.07;;
5995;SDS011;3026;53.612;7.278;2023-06-05T13:08:40;5.80;;;5.17;;
5995;SDS011;3026;53.612;7.278;2023-06-05T13:11:07;6.97;;;4.47;;
5995;SDS011;3026;53.612;7.278;2023-06-05T13:13:35;9.07;;;5.27;;
5995;SDS011;3026;53.612;7.278;2023-06-05T13:16:02;7.87;;;5.50;;
5995;SDS011;3026;53.612;7.278;2023-06-05T13:18:32;5.47;;;4.57;;
5995;SDS011;3026;53.612;7.278;2023-06-05T13:20:59;5.30;;;4.50;;
5995;SDS011;3026;53.612;7.278;2023-06-05T13:23:26;5.23;;;4.27;;
5995;SDS011;3026;53.612;7.278;2023-06-05T13:25:54;8.20;;;5.00;;
5995;SDS011;3026;53.612;7.278;2023-06-05T13:28:21;4.87;;;4.13;;
5995;SDS011;3026;53.612;7.278;2023-06-05T13:30:48;6.37;;;3.90;;
5995;SDS011;3026;53.612;7.278;2023-06-05T13:33:15;5.50;;;4.13;;
5995;SDS011;3026;53.612;7.278;2023-06-05T13:35:43;4.77;;;4.33;;
5995;SDS011;3026;53.612;7.278;2023-06-05T13:38:10;5.57;;;4.13;;
5995;SDS011;3026;53.612;7.278;2023-06-05T13:40:37;4.43;;;3.40;;
5995;SDS011;3026;53.612;7.278;2023-06-05T13:43:05;6.00;;;4.03;;
5995;SDS011;3026;53.612;7.278;2023-06-05T13:45:32;6.73;;;4.10;;
5995;SDS011;3026;53.612;7.278;2023-06-05T13:47:58;3.77;;;3.40;;
5995;SDS011;3026;53.612;7.278;2023-06-05T13:50:25;4.33;;;3.83;;
5995;SDS011;3026;53.612;7.278;2023-06-05T13:52:52;4.57;;;4.03;;
5995;SDS011;3026;53.612;7.278;2023-06-05T13:55:19;5.13;;;4.00;;
5995;SDS011;3026;53.612;7.278;2023-06-05T13:57:45;3.47;;;2.77;;
5995;SDS011;3026;53.612;7.278;2023-06-05T14:00:14;5.17;;;3.80;;
5995;SDS011;3026;53.612;7.278;2023-06-05T14:02:41;5.23;;;3.40;;
5995;SDS011;3026;53.612;7.278;2023-06-05T14:05:09;4.10;;;2.90;;
5995;SDS011;3026;53.612;7.278;2023-06-05T14:07:37;4.27;;;3.07;;
5995;SDS011;3026;53.612;7.278;2023-06-05T14:10:04;4.37;;;2.70;;
5995;SDS011;3026;53.612;7.278;2023-06-05T14:12:32;5.97;;;3.10;;
5995;SDS011;3026;53.612;7.278;2023-06-05T14:14:59;4.37;;;2.83;;
5995;SDS011;3026;53.612;7.278;2023-06-05T14:17:27;4.90;;;2.50;;
5995;SDS011;3026;53.612;7.278;2023-06-05T14:19:54;3.30;;;2.90;;
5995;SDS011;3026;53.612;7.278;2023-06-05T14:22:21;4.17;;;2.67;;
5995;SDS011;3026;53.612;7.278;2023-06-05T14:24:48;4.20;;;3.70;;
5995;SDS011;3026;53.612;7.278;2023-06-05T14:27:15;4.80;;;2.80;;
5995;SDS011;3026;53.612;7.278;2023-06-05T14:29:43;4.90;;;3.23;;
5995;SDS011;3026;53.612;7.278;2023-06-05T14:32:10;7.60;;;3.63;;
5995;SDS011;3026;53.612;7.278;2023-06-05T14:34:38;7.47;;;3.93;;
5995;SDS011;3026;53.612;7.278;2023-06-05T14:37:05;6.63;;;3.43;;
5995;SDS011;3026;53.612;7.278;2023-06-05T14:39:32;3.23;;;2.70;;
5995;SDS011;3026;53.612;7.278;2023-06-05T14:41:59;4.10;;;2.80;;
5995;SDS011;3026;53.612;7.278;2023-06-05T14:44:26;3.57;;;3.27;;
5995;SDS011;3026;53.612;7.278;2023-06-05T14:46:54;6.47;;;4.00;;
5995;SDS011;3026;53.612;7.278;2023-06-05T14:49:22;5.73;;;4.07;;
5995;SDS011;3026;53.612;7.278;2023-06-05T14:51:51;4.37;;;3.97;;
5995;SDS011;3026;53.612;7.278;2023-06-05T14:54:18;3.67;;;3.37;;
5995;SDS011;3026;53.612;7.278;2023-06-05T14:56:45;4.00;;;3.60;;
5995;SDS011;3026;53.612;7.278;2023-06-05T14:59:12;6.93;;;3.60;;
5995;SDS011;3026;53.612;7.278;2023-06-05T15:01:40;4.77;;;3.17;;
5995;SDS011;3026;53.612;7.278;2023-06-05T15:04:07;5.33;;;3.50;;
5995;SDS011;3026;53.612;7.278;2023-06-05T15:06:34;4.87;;;3.80;;
5995;SDS011;3026;53.612;7.278;2023-06-05T15:09:02;7.00;;;3.73;;
5995;SDS011;3026;53.612;7.278;2023-06-05T15:11:29;4.97;;;4.43;;
5995;SDS011;3026;53.612;7.278;2023-06-05T15:13:56;4.30;;;3.90;;
5995;SDS011;3026;53.612;7.278;2023-06-05T15:16:23;5.97;;;3.97;;
5995;SDS011;3026;53.612;7.278;2023-06-05T15:18:49;5.80;;;4.23;;
5995;SDS011;3026;53.612;7.278;2023-06-05T15:21:16;4.30;;;3.20;;
5995;SDS011;3026;53.612;7.278;2023-06-05T15:23:43;4.93;;;3.70;;
5995;SDS011;3026;53.612;7.278;2023-06-05T15:26:11;5.67;;;3.57;;
5995;SDS011;3026;53.612;7.278;2023-06-05T15:28:38;5.23;;;3.17;;
5995;SDS011;3026;53.612;7.278;2023-06-05T15:31:06;4.50;;;3.77;;
5995;SDS011;3026;53.612;7.278;2023-06-05T15:33:33;5.73;;;4.00;;
5995;SDS011;3026;53.612;7.278;2023-06-05T15:35:59;5.33;;;3.47;;
5995;SDS011;3026;53.612;7.278;2023-06-05T15:38:26;4.47;;;3.10;;
5995;SDS011;3026;53.612;7.278;2023-06-05T15:40:54;3.40;;;2.70;;
5995;SDS011;3026;53.612;7.278;2023-06-05T15:43:22;3.57;;;3.27;;
5995;SDS011;3026;53.612;7.278;2023-06-05T15:45:49;4.40;;;3.60;;